Time;durP1;ratioP1;P1;durP2;ratioP2;P2;SDS_P1;SDS_P2;PMS_P1;PMS_P2;Temp;Humidity;BMP_temperature;BMP_pressure;BME280_temperature;BME280_humidity;BME280_pressure;Samples;Min_cycle;Max_cycle;Signal;HPM_P1;HPM_P2
2023/03/11 00:00:17;;;;;;;8.93;1.85;;;-0.50;99.90;;;;;;5036882;28;20049;-34
2023/03/11 00:02:45;;;;;;;6.55;2.40;;;-0.50;99.90;;;;;;5016944;28;20056;-34
2023/03/11 00:05:21;;;;;;;5.80;1.80;;;-0.50;99.90;;;;;;5019127;28;20557;-34
2023/03/11 00:07:47;;;;;;;6.57;2.30;;;-0.40;99.90;;;;;;5019613;28;20037;-34
2023/03/11 00:10:18;;;;;;;4.78;2.28;;;-0.30;99.90;;;;;;5040968;28;20045;-34
2023/03/11 00:12:44;;;;;;;5.00;2.00;;;-0.30;99.90;;;;;;5036899;28;20079;-35
2023/03/11 00:15:11;;;;;;;4.25;2.10;;;-0.20;99.90;;;;;;5038132;28;20487;-35
2023/03/11 00:17:37;;;;;;;7.57;2.20;;;-0.10;99.90;;;;;;5019682;28;20566;-34
2023/03/11 00:20:04;;;;;;;5.00;1.92;;;-0.10;99.90;;;;;;5009935;28;20052;-34
2023/03/11 00:22:30;;;;;;;8.02;2.00;;;0.00;99.90;;;;;;5016900;28;20049;-35
2023/03/11 00:24:56;;;;;;;4.65;2.47;;;0.00;99.90;;;;;;5018301;28;20387;-35
2023/03/11 00:27:21;;;;;;;6.75;2.30;;;0.00;99.90;;;;;;5035877;28;20037;-35
2023/03/11 00:29:47;;;;;;;4.53;1.90;;;0.00;99.90;;;;;;5019855;28;20064;-35
2023/03/11 00:32:13;;;;;;;3.92;1.90;;;0.10;99.90;;;;;;5019088;28;20033;-34
2023/03/11 00:34:39;;;;;;;4.70;2.20;;;0.10;99.90;;;;;;5044991;28;20037;-34
2023/03/11 00:37:05;;;;;;;5.03;2.22;;;0.10;99.90;;;;;;5015253;28;20029;-35
2023/03/11 00:39:31;;;;;;;4.97;1.80;;;0.10;99.90;;;;;;5035483;28;20207;-35
2023/03/11 00:41:57;;;;;;;5.95;1.92;;;0.20;99.90;;;;;;5015845;28;20194;-34
2023/03/11 00:44:22;;;;;;;4.55;1.80;;;0.20;99.90;;;;;;5035174;28;20045;-35
2023/03/11 00:46:48;;;;;;;5.50;1.90;;;0.10;99.90;;;;;;5017391;28;20037;-35
2023/03/11 00:49:14;;;;;;;13.57;2.50;;;0.20;99.90;;;;;;5050279;28;20103;-35
2023/03/11 00:51:40;;;;;;;5.85;2.00;;;0.10;99.90;;;;;;5019251;28;20092;-34
2023/03/11 00:54:06;;;;;;;8.35;2.15;;;0.20;99.90;;;;;;5018688;28;20034;-35
2023/03/11 00:56:32;;;;;;;4.22;1.70;;;0.10;99.90;;;;;;5019171;28;20041;-35
2023/03/11 00:58:57;;;;;;;11.82;2.17;;;0.10;99.90;;;;;;5018313;28;20112;-34
2023/03/11 01:01:23;;;;;;;10.13;2.95;;;0.10;99.90;;;;;;5018841;28;20029;-34
2023/03/11 01:03:49;;;;;;;9.43;2.00;;;0.10;99.90;;;;;;5048102;28;20038;-35
2023/03/11 01:06:15;;;;;;;5.55;2.88;;;0.00;99.90;;;;;;5010458;28;20041;-35
2023/03/11 01:08:41;;;;;;;6.70;1.83;;;0.00;99.90;;;;;;5039476;28;20033;-35
2023/03/11 01:11:07;;;;;;;6.82;3.25;;;-0.10;99.90;;;;;;5017338;28;20089;-35
2023/03/11 01:13:34;;;;;;;5.25;1.92;;;-0.10;99.90;;;;;;5016792;28;20041;-35
2023/03/11 01:16:00;;;;;;;4.40;1.80;;;-0.10;99.90;;;;;;5014082;28;20033;-34
2023/03/11 01:18:27;;;;;;;9.55;2.40;;;-0.10;99.90;;;;;;5015874;28;20092;-34
2023/03/11 01:20:53;;;;;;;5.65;2.13;;;-0.20;99.90;;;;;;5018794;28;20494;-34
2023/03/11 01:23:20;;;;;;;5.30;2.10;;;-0.10;99.90;;;;;;5018142;28;20038;-34
2023/03/11 01:25:46;;;;;;;5.82;2.50;;;-0.20;99.90;;;;;;5028852;28;20397;-34
2023/03/11 01:28:12;;;;;;;6.20;1.77;;;-0.20;99.90;;;;;;5018577;28;20075;-34
2023/03/11 01:30:39;;;;;;;7.13;2.00;;;-0.20;99.90;;;;;;5015367;28;20476;-34
2023/03/11 01:33:07;;;;;;;5.70;1.88;;;-0.10;99.90;;;;;;5013388;28;20112;-34
2023/03/11 01:35:34;;;;;;;6.75;1.88;;;-0.10;99.90;;;;;;5018060;28;20509;-34
2023/03/11 01:38:00;;;;;;;6.95;2.00;;;-0.10;99.90;;;;;;5018884;28;20036;-34
2023/03/11 01:40:29;;;;;;;5.70;1.50;;;-0.10;99.90;;;;;;5036155;28;20037;-34
2023/03/11 01:42:54;;;;;;;4.75;2.08;;;-0.10;99.90;;;;;;5019191;28;20390;-35
2023/03/11 01:45:46;;;;;;;6.15;2.05;;;-0.10;99.90;;;;;;5020336;28;20137;-35
2023/03/11 01:48:12;;;;;;;4.25;1.90;;;-0.20;99.90;;;;;;5015358;28;20041;-35
2023/03/11 01:50:43;;;;;;;3.30;1.75;;;-0.20;99.90;;;;;;5039429;28;20033;-36
2023/03/11 01:53:10;;;;;;;6.20;1.88;;;-0.10;99.90;;;;;;5017821;28;20042;-35
2023/03/11 01:55:37;;;;;;;4.13;1.48;;;-0.20;99.90;;;;;;5017993;28;20506;-35
2023/03/11 01:58:07;;;;;;;5.72;2.00;;;-0.20;99.90;;;;;;5018220;28;20033;-35
2023/03/11 02:00:35;;;;;;;3.92;1.40;;;-0.30;99.90;;;;;;5015742;28;20137;-36
2023/03/11 02:03:08;;;;;;;7.03;1.65;;;-0.30;99.90;;;;;;5017680;28;20506;-34
2023/03/11 02:05:34;;;;;;;3.85;1.50;;;-0.30;99.90;;;;;;5022042;28;20048;-45
2023/03/11 02:08:00;;;;;;;3.35;1.80;;;-0.30;99.90;;;;;;5020813;28;20395;-34
2023/03/11 02:10:26;;;;;;;3.88;1.75;;;-0.30;99.90;;;;;;5028063;28;20045;-34
2023/03/11 02:12:52;;;;;;;5.65;1.67;;;-0.20;99.90;;;;;;5014466;28;20053;-35
2023/03/11 02:15:18;;;;;;;3.25;1.50;;;-0.20;99.90;;;;;;5019611;28;20064;-35
2023/03/11 02:17:44;;;;;;;2.90;1.48;;;-0.20;99.90;;;;;;5016255;28;20041;-34
2023/03/11 02:20:25;;;;;;;4.28;1.42;;;-0.10;99.90;;;;;;5050744;28;20053;-34
2023/03/11 02:22:55;;;;;;;3.63;1.20;;;-0.10;99.90;;;;;;5034509;28;20402;-35
2023/03/11 02:25:22;;;;;;;2.45;1.50;;;-0.10;99.90;;;;;;5003383;28;20038;-34
2023/03/11 02:27:50;;;;;;;4.80;1.27;;;-0.10;99.90;;;;;;5035577;28;20041;-34
2023/03/11 02:30:17;;;;;;;5.47;1.50;;;-0.10;99.90;;;;;;5051750;28;20033;-34
2023/03/11 02:32:47;;;;;;;4.10;1.38;;;-0.10;99.90;;;;;;5024654;28;20036;-34
2023/03/11 02:35:13;;;;;;;6.25;1.73;;;-0.10;99.90;;;;;;5036216;28;20041;-34
2023/03/11 02:37:51;;;;;;;7.70;1.85;;;-0.20;99.90;;;;;;5036548;28;20418;-35
2023/03/11 02:40:23;;;;;;;4.38;1.45;;;-0.10;99.90;;;;;;5032813;28;20068;-35
2023/03/11 02:42:58;;;;;;;6.15;1.63;;;-0.10;99.90;;;;;;5012030;28;20033;-35
2023/03/11 02:45:25;;;;;;;3.15;1.40;;;-0.10;99.90;;;;;;5030111;28;20088;-34
2023/03/11 02:47:53;;;;;;;2.08;1.20;;;-0.10;99.90;;;;;;5018176;28;20040;-34
2023/03/11 02:50:19;;;;;;;4.05;1.52;;;-0.10;99.90;;;;;;5018122;28;20113;-34
2023/03/11 02:52:48;;;;;;;6.70;1.48;;;-0.20;99.90;;;;;;5015308;28;20044;-34
2023/03/11 02:55:16;;;;;;;8.27;1.75;;;-0.20;99.90;;;;;;5051455;28;20029;-34
2023/03/11 02:57:43;;;;;;;3.30;1.25;;;-0.20;99.90;;;;;;5017034;28;20326;-35
2023/03/11 03:00:13;;;;;;;3.50;1.10;;;-0.20;99.90;;;;;;5035558;28;20037;-34
2023/03/11 03:02:40;;;;;;;2.88;1.38;;;-0.20;99.90;;;;;;5018695;28;20041;-34
2023/03/11 03:05:07;;;;;;;3.55;1.23;;;-0.20;99.90;;;;;;5029796;28;20034;-35
2023/03/11 03:07:32;;;;;;;4.55;1.48;;;-0.20;99.90;;;;;;5016296;28;20045;-34
2023/03/11 03:09:58;;;;;;;5.05;1.52;;;-0.30;99.90;;;;;;5017257;28;20049;-35
2023/03/11 03:12:24;;;;;;;4.15;1.20;;;-0.30;99.90;;;;;;5003874;28;20041;-35
2023/03/11 03:14:50;;;;;;;4.22;1.55;;;-0.30;99.90;;;;;;5018063;28;20033;-34
2023/03/11 03:17:16;;;;;;;2.90;1.23;;;-0.40;99.90;;;;;;5016912;28;20026;-34
2023/03/11 03:19:42;;;;;;;2.40;1.10;;;-0.40;99.90;;;;;;5019415;28;20041;-34
2023/03/11 03:22:08;;;;;;;3.60;1.20;;;-0.50;99.90;;;;;;5017941;28;20034;-35
2023/03/11 03:24:34;;;;;;;1.90;1.10;;;-0.70;99.90;;;;;;5017191;28;20033;-35
2023/03/11 03:27:00;;;;;;;4.32;1.40;;;-0.70;99.90;;;;;;5017863;28;20037;-34
2023/03/11 03:29:26;;;;;;;2.72;1.15;;;-0.70;99.90;;;;;;5009296;28;20041;-35
2023/03/11 03:31:52;;;;;;;2.70;1.25;;;-0.80;99.90;;;;;;5039934;28;20239;-34
2023/03/11 03:34:18;;;;;;;5.45;1.45;;;-0.90;99.90;;;;;;5020846;28;20097;-34
2023/03/11 03:36:43;;;;;;;4.03;1.30;;;-0.90;99.90;;;;;;5049829;28;20168;-34
2023/03/11 03:39:09;;;;;;;4.75;1.10;;;-1.00;99.90;;;;;;5028062;28;20514;-35
2023/03/11 03:41:35;;;;;;;3.50;1.20;;;-1.10;99.90;;;;;;5016343;28;20097;-36
2023/03/11 03:44:01;;;;;;;3.63;1.17;;;-1.10;99.90;;;;;;5028852;28;20091;-34
2023/03/11 03:46:27;;;;;;;2.08;1.13;;;-1.20;99.90;;;;;;5036380;28;20038;-35
2023/03/11 03:48:53;;;;;;;4.22;1.40;;;-1.20;99.90;;;;;;5019351;28;20092;-35
2023/03/11 03:51:19;;;;;;;3.70;1.40;;;-1.20;99.90;;;;;;5017354;28;20041;-34
2023/03/11 03:53:47;;;;;;;2.63;1.45;;;-1.30;99.90;;;;;;5005733;28;20033;-34
2023/03/11 03:56:15;;;;;;;3.67;1.70;;;-1.20;99.90;;;;;;5017042;28;20057;-34
2023/03/11 03:58:42;;;;;;;4.18;1.20;;;-1.20;99.90;;;;;;5033533;28;20033;-34
2023/03/11 04:01:09;;;;;;;2.47;1.00;;;-1.20;99.90;;;;;;5038014;28;20041;-35
2023/03/11 04:03:36;;;;;;;6.05;1.85;;;-1.20;99.90;;;;;;5017435;28;20048;-34
2023/03/11 04:06:16;;;;;;;4.53;1.60;;;-1.30;99.90;;;;;;5050155;28;20048;-34
2023/03/11 04:08:42;;;;;;;4.63;1.45;;;-1.30;99.90;;;;;;5033573;28;20120;-35
2023/03/11 04:11:08;;;;;;;2.40;1.17;;;-1.30;99.90;;;;;;5033724;28;20131;-34
2023/03/11 04:13:34;;;;;;;7.35;1.70;;;-1.40;99.90;;;;;;5014653;28;20041;-34
2023/03/11 04:16:03;;;;;;;3.75;1.38;;;-1.40;99.90;;;;;;5016328;28;20025;-35
2023/03/11 04:18:29;;;;;;;3.78;1.60;;;-1.50;99.90;;;;;;5018280;28;20530;-34
2023/03/11 04:20:55;;;;;;;3.70;1.50;;;-1.50;99.90;;;;;;5012970;28;20081;-34
2023/03/11 04:23:21;;;;;;;5.20;1.77;;;-1.50;99.90;;;;;;5047620;28;20048;-34
2023/03/11 04:25:47;;;;;;;3.85;1.30;;;-1.60;99.90;;;;;;5032708;28;20037;-34
2023/03/11 04:28:13;;;;;;;4.25;1.63;;;-1.70;99.90;;;;;;5034735;28;20077;-34
2023/03/11 04:30:39;;;;;;;3.22;1.33;;;-1.70;99.90;;;;;;5019138;28;20068;-34
2023/03/11 04:33:05;;;;;;;5.28;1.88;;;-1.70;99.90;;;;;;5034233;28;20038;-34
2023/03/11 04:35:31;;;;;;;4.43;1.48;;;-1.80;99.90;;;;;;5017210;28;20070;-34
2023/03/11 04:37:57;;;;;;;3.58;1.10;;;-1.90;99.90;;;;;;5014702;28;20057;-34
2023/03/11 04:40:23;;;;;;;3.45;1.30;;;-1.90;99.90;;;;;;5018417;28;20098;-34
2023/03/11 04:42:48;;;;;;;3.17;1.70;;;-1.90;99.90;;;;;;5016957;28;20033;-34
2023/03/11 04:45:17;;;;;;;5.32;1.70;;;-2.00;99.90;;;;;;5051530;28;20042;-34
2023/03/11 04:47:45;;;;;;;2.78;1.58;;;-2.00;99.90;;;;;;5038100;28;20459;-34
2023/03/11 04:50:11;;;;;;;3.22;1.50;;;-2.00;99.90;;;;;;5037702;28;20038;-34
2023/03/11 04:52:37;;;;;;;5.03;2.00;;;-2.00;99.90;;;;;;5033162;28;20037;-34
2023/03/11 04:55:03;;;;;;;4.93;1.50;;;-2.00;99.90;;;;;;5017171;28;20044;-34
2023/03/11 04:57:29;;;;;;;3.40;1.70;;;-2.10;99.90;;;;;;5050966;28;20028;-34
2023/03/11 04:59:55;;;;;;;3.33;1.30;;;-2.10;99.90;;;;;;5020617;28;20033;-34
2023/03/11 05:02:21;;;;;;;3.92;2.00;;;-2.20;99.90;;;;;;5033831;28;20054;-34
2023/03/11 05:04:47;;;;;;;3.08;1.73;;;-2.20;99.90;;;;;;5019962;28;20097;-34
2023/03/11 05:07:13;;;;;;;4.00;1.42;;;-2.20;99.90;;;;;;5017550;28;20037;-35
2023/03/11 05:09:38;;;;;;;3.30;1.48;;;-2.20;99.90;;;;;;5014742;28;20041;-34
2023/03/11 05:12:05;;;;;;;4.00;1.75;;;-2.20;99.90;;;;;;5016727;28;20096;-33
2023/03/11 05:14:31;;;;;;;2.45;1.55;;;-2.20;99.90;;;;;;5038522;28;20045;-34
2023/03/11 05:16:56;;;;;;;3.55;1.38;;;-2.20;99.90;;;;;;5011034;28;20038;-33
2023/03/11 05:19:33;;;;;;;5.35;1.63;;;-2.20;99.90;;;;;;5021721;28;20044;-34
2023/03/11 05:22:03;;;;;;;5.10;1.30;;;-2.20;99.90;;;;;;5020197;28;20116;-34
2023/03/11 05:24:29;;;;;;;4.28;1.55;;;-2.30;99.90;;;;;;5019662;28;20045;-35
2023/03/11 05:26:56;;;;;;;3.95;1.50;;;-2.30;99.90;;;;;;5019948;28;20037;-34
2023/03/11 05:29:22;;;;;;;4.40;2.00;;;-2.30;99.90;;;;;;5023364;28;20073;-34
2023/03/11 05:31:48;;;;;;;4.85;2.42;;;-2.40;99.90;;;;;;5019911;28;20037;-34
2023/03/11 05:34:15;;;;;;;2.92;1.73;;;-2.40;99.90;;;;;;5013881;28;20099;-34
2023/03/11 05:36:43;;;;;;;2.92;1.50;;;-2.50;99.90;;;;;;5017156;28;20518;-33
2023/03/11 05:39:08;;;;;;;6.50;1.80;;;-2.50;99.90;;;;;;5016175;28;20057;-34
2023/03/11 05:41:35;;;;;;;5.03;2.30;;;-2.60;99.90;;;;;;5030111;28;20041;-34
2023/03/11 05:44:01;;;;;;;4.03;1.80;;;-2.60;99.90;;;;;;5023999;28;20095;-39
2023/03/11 05:46:26;;;;;;;2.42;2.05;;;-2.60;99.90;;;;;;5012640;28;20454;-33
2023/03/11 05:48:52;;;;;;;4.65;1.50;;;-2.70;99.90;;;;;;5014470;28;20128;-34
2023/03/11 05:51:19;;;;;;;4.07;1.75;;;-2.70;99.90;;;;;;5039919;28;20026;-34
2023/03/11 05:53:47;;;;;;;4.50;2.03;;;-2.80;99.90;;;;;;5023104;28;20044;-33
2023/03/11 05:56:22;;;;;;;2.40;1.67;;;-2.80;99.90;;;;;;5014743;28;20388;-34
2023/03/11 05:58:48;;;;;;;3.38;1.73;;;-2.80;99.90;;;;;;5033197;28;20034;-34
2023/03/11 06:01:17;;;;;;;6.15;1.70;;;-2.80;99.90;;;;;;5015919;28;20414;-33
2023/03/11 06:03:43;;;;;;;3.83;1.88;;;-2.70;99.90;;;;;;5009879;28;20450;-34
2023/03/11 06:06:11;;;;;;;3.35;1.80;;;-2.70;99.90;;;;;;5016040;28;20042;-34
2023/03/11 06:08:37;;;;;;;5.18;1.98;;;-2.70;99.90;;;;;;5037398;28;20112;-34
2023/03/11 06:11:08;;;;;;;5.22;2.00;;;-2.70;99.90;;;;;;5000901;28;20037;-34
2023/03/11 06:13:35;;;;;;;2.72;1.85;;;-2.70;99.90;;;;;;5003540;28;20044;-33
2023/03/11 06:16:02;;;;;;;2.80;1.70;;;-2.80;99.90;;;;;;5005944;28;20121;-34
2023/03/11 06:18:28;;;;;;;4.30;1.70;;;-2.80;99.90;;;;;;5041831;28;20033;-32
2023/03/11 06:20:58;;;;;;;4.03;1.70;;;-2.80;99.90;;;;;;5023236;28;20034;-33
2023/03/11 06:23:24;;;;;;;4.85;1.60;;;-2.80;99.90;;;;;;5040765;28;20041;-40
2023/03/11 06:26:04;;;;;;;3.35;1.60;;;-2.90;99.90;;;;;;5012478;28;20042;-33
2023/03/11 06:28:31;;;;;;;4.00;1.65;;;-2.90;99.90;;;;;;5003000;28;20042;-33
2023/03/11 06:31:09;;;;;;;4.97;1.80;;;-2.90;99.90;;;;;;4985705;28;20034;-34
2023/03/11 06:33:35;;;;;;;2.72;1.60;;;-2.90;99.90;;;;;;5016617;28;20101;-34
2023/03/11 06:36:02;;;;;;;7.97;1.90;;;-2.90;99.90;;;;;;5010432;28;20089;-33
2023/03/11 06:38:28;;;;;;;5.63;2.65;;;-2.90;99.90;;;;;;5043797;28;20096;-37
2023/03/11 06:40:58;;;;;;;3.42;1.85;;;-2.90;99.90;;;;;;5012344;28;20120;-36
2023/03/11 06:43:24;;;;;;;2.92;1.95;;;-2.90;99.90;;;;;;5011194;28;20498;-35
2023/03/11 06:45:49;;;;;;;6.95;2.03;;;-2.90;99.90;;;;;;5011786;28;20197;-35
2023/03/11 06:48:16;;;;;;;5.07;2.20;;;-2.90;99.90;;;;;;5041133;28;20061;-35
2023/03/11 06:50:43;;;;;;;12.23;2.17;;;-2.80;99.90;;;;;;5020543;28;20044;-35
2023/03/11 06:53:09;;;;;;;2.95;1.92;;;-2.80;99.90;;;;;;5022384;28;20037;-35
2023/03/11 06:55:36;;;;;;;6.18;2.72;;;-2.80;99.90;;;;;;5022859;28;20034;-34
2023/03/11 06:58:01;;;;;;;4.47;2.20;;;-2.70;99.90;;;;;;5026860;28;20037;-34
2023/03/11 07:00:29;;;;;;;3.17;2.20;;;-2.70;99.90;;;;;;5008644;28;20038;-35
2023/03/11 07:02:56;;;;;;;3.50;2.20;;;-2.60;99.90;;;;;;5014129;28;20453;-35
2023/03/11 07:05:22;;;;;;;4.82;2.38;;;-2.50;99.90;;;;;;5009897;28;20120;-34
2023/03/11 07:07:48;;;;;;;7.45;2.63;;;-2.50;99.90;;;;;;4996102;28;20371;-35
2023/03/11 07:10:14;;;;;;;5.43;2.22;;;-2.40;99.90;;;;;;5002991;28;20030;-43
2023/03/11 07:12:40;;;;;;;3.03;2.60;;;-2.30;99.90;;;;;;5009609;28;20072;-35
2023/03/11 07:15:07;;;;;;;5.57;2.03;;;-2.30;99.90;;;;;;5000888;28;20069;-35
2023/03/11 07:17:34;;;;;;;4.90;2.28;;;-2.20;99.90;;;;;;5011243;28;20041;-35
2023/03/11 07:20:00;;;;;;;3.47;2.08;;;-2.10;99.90;;;;;;5040291;28;20041;-35
2023/03/11 07:22:27;;;;;;;5.80;2.40;;;-2.00;99.90;;;;;;5013393;28;20480;-34
2023/03/11 07:24:53;;;;;;;5.20;2.50;;;-1.90;99.90;;;;;;5008247;28;20033;-35
2023/03/11 07:27:19;;;;;;;4.30;2.55;;;-1.80;99.90;;;;;;5018703;28;20056;-38
2023/03/11 07:29:46;;;;;;;7.88;3.67;;;-1.70;99.90;;;;;;5037501;28;21168;-32
2023/03/11 07:32:12;;;;;;;5.90;3.00;;;-1.60;99.90;;;;;;5025802;28;20048;-33
2023/03/11 07:34:38;;;;;;;5.15;3.50;;;-1.50;99.90;;;;;;5006979;28;20034;-35
2023/03/11 07:37:04;;;;;;;4.88;3.67;;;-1.40;99.90;;;;;;5015218;28;20044;-35
2023/03/11 07:39:30;;;;;;;7.82;3.63;;;-1.30;99.90;;;;;;5017642;28;20072;-35
2023/03/11 07:41:56;;;;;;;6.03;3.00;;;-1.20;99.90;;;;;;5033274;28;20423;-35
2023/03/11 07:44:22;;;;;;;3.95;3.03;;;-1.20;99.90;;;;;;5009195;28;20045;-36
2023/03/11 07:46:52;;;;;;;4.82;2.90;;;-1.00;99.90;;;;;;5013353;28;20069;-34
2023/03/11 07:49:19;;;;;;;2.50;2.25;;;-1.00;99.90;;;;;;5020895;28;20397;-35
2023/03/11 07:51:46;;;;;;;5.72;2.58;;;-0.90;99.90;;;;;;5012689;28;20029;-34
2023/03/11 07:54:13;;;;;;;8.30;3.85;;;-0.80;99.90;;;;;;5023406;28;20041;-34
2023/03/11 08:00:43;;;;;;;4.78;2.05;;;-0.20;99.90;;;;;;5010264;28;20119;-34
2023/03/11 08:03:10;;;;;;;7.32;2.92;;;0.20;99.90;;;;;;5009673;28;20503;-34
2023/03/11 08:06:46;;;;;;;7.68;2.20;;;0.50;99.90;;;;;;5027164;28;20097;-35
2023/03/11 08:09:54;;;;;;;5.97;2.42;;;0.90;99.90;;;;;;5006668;28;20415;-34
2023/03/11 08:13:20;;;;;;;5.43;2.22;;;1.30;99.90;;;;;;5026502;28;20113;-34
2023/03/11 08:28:09;;;;;;;4.25;1.67;;;3.50;99.90;;;;;;5028853;28;20037;-36
2023/03/11 08:46:29;;;;;;;2.88;1.60;;;6.30;99.90;;;;;;5020960;28;20430;-35
2023/03/11 08:48:56;;;;;;;4.90;1.42;;;6.70;99.90;;;;;;5037392;28;20491;-35
2023/03/11 08:51:24;;;;;;;4.53;1.60;;;6.90;99.90;;;;;;5038965;28;20044;-35
2023/03/11 08:53:52;;;;;;;3.13;1.60;;;7.10;99.90;;;;;;5037931;28;20041;-36
2023/03/11 08:56:21;;;;;;;4.13;1.73;;;7.40;99.90;;;;;;5022331;28;20029;-35
2023/03/11 08:59:33;;;;;;;3.75;1.60;;;7.60;99.90;;;;;;5015853;28;20030;-35
2023/03/11 09:02:18;;;;;;;3.65;1.90;;;7.80;99.90;;;;;;5035366;28;20514;-36
2023/03/11 09:04:44;;;;;;;3.05;1.33;;;8.10;99.90;;;;;;5037233;28;20033;-35
2023/03/11 09:07:41;;;;;;;3.35;1.45;;;8.50;99.90;;;;;;5036666;28;20044;-36
2023/03/11 09:10:11;;;;;;;2.47;1.25;;;8.60;99.90;;;;;;5025979;28;20177;-36
2023/03/11 09:12:37;;;;;;;2.42;1.35;;;8.90;99.90;;;;;;5035199;28;20040;-36
2023/03/11 09:15:04;;;;;;;5.72;1.48;;;9.10;99.90;;;;;;5045159;28;20042;-36
2023/03/11 09:17:30;;;;;;;8.85;2.05;;;9.50;99.90;;;;;;5027980;28;20400;-36
2023/03/11 09:19:57;;;;;;;2.38;1.20;;;9.60;99.90;;;;;;5016323;28;20052;-36
2023/03/11 09:22:23;;;;;;;2.22;1.23;;;9.70;99.90;;;;;;5032771;28;20064;-36
2023/03/11 09:24:49;;;;;;;6.05;1.77;;;9.60;99.90;;;;;;5035207;28;20055;-36
2023/03/11 09:27:16;;;;;;;3.28;1.75;;;9.90;99.90;;;;;;5013499;28;20041;-36
2023/03/11 09:29:42;;;;;;;5.75;3.50;;;9.90;99.90;;;;;;5035074;28;20494;-36
2023/03/11 09:32:12;;;;;;;3.40;2.28;;;10.20;99.90;;;;;;5034770;28;20072;-36
2023/03/11 09:34:45;;;;;;;3.88;1.30;;;10.40;99.90;;;;;;5017380;28;20037;-36
2023/03/11 09:37:49;;;;;;;4.20;1.35;;;10.50;99.90;;;;;;5019262;28;20403;-36
2023/03/11 09:40:18;;;;;;;5.03;1.30;;;10.50;99.90;;;;;;5031591;28;20041;-36
2023/03/11 09:43:07;;;;;;;2.45;1.08;;;10.50;99.90;;;;;;5012902;28;20097;-36
2023/03/11 09:45:40;;;;;;;4.53;1.75;;;10.00;99.90;;;;;;5010852;28;20514;-36
2023/03/11 09:48:18;;;;;;;2.20;1.30;;;10.20;99.90;;;;;;5012074;28;20079;-37
2023/03/11 09:51:09;;;;;;;2.25;1.20;;;10.60;99.90;;;;;;5034956;28;20041;-36
2023/03/11 09:53:44;;;;;;;3.80;1.67;;;10.90;99.90;;;;;;5035726;28;20038;-36
2023/03/11 09:56:19;;;;;;;3.38;1.60;;;11.10;99.90;;;;;;5036357;28;20033;-36
2023/03/11 09:58:51;;;;;;;3.63;1.15;;;11.30;99.90;;;;;;5035319;28;20037;-36
2023/03/11 10:01:32;;;;;;;2.35;1.23;;;11.10;99.90;;;;;;5017874;28;20498;-36
2023/03/11 10:04:20;;;;;;;3.30;1.45;;;10.90;99.90;;;;;;5035616;28;20041;-36
2023/03/11 10:06:48;;;;;;;3.00;1.30;;;11.20;99.90;;;;;;5029451;28;20430;-36
2023/03/11 10:09:55;;;;;;;2.13;1.30;;;11.50;99.90;;;;;;5034904;28;20107;-37
2023/03/11 10:12:51;;;;;;;2.85;1.08;;;11.70;99.90;;;;;;4992753;28;20034;-37
2023/03/11 10:15:47;;;;;;;3.75;1.17;;;11.70;99.90;;;;;;4983615;28;20114;-36
2023/03/11 10:18:47;;;;;;;4.90;0.90;;;11.40;99.90;;;;;;5028623;28;20053;-37
2023/03/11 10:21:33;;;;;;;2.47;1.20;;;11.60;99.90;;;;;;5031276;28;20100;-37
2023/03/11 10:24:20;;;;;;;3.17;1.08;;;11.80;99.90;;;;;;5023151;28;20077;-37
2023/03/11 10:26:52;;;;;;;3.10;1.30;;;11.90;99.90;;;;;;5009438;28;20033;-37
2023/03/11 10:29:47;;;;;;;3.92;1.52;;;12.40;99.90;;;;;;5017528;28;20116;-37
2023/03/11 10:32:23;;;;;;;4.85;1.10;;;12.60;99.90;;;;;;5047655;28;20049;-37
2023/03/11 10:35:14;;;;;;;3.47;1.30;;;12.50;99.90;;;;;;5007367;28;20034;-37
2023/03/11 10:37:58;;;;;;;4.65;1.40;;;12.50;99.90;;;;;;5001314;28;20071;-38
2023/03/11 10:40:49;;;;;;;6.15;1.40;;;11.90;99.90;;;;;;5009101;28;20113;-37
2023/03/11 10:43:25;;;;;;;2.42;1.08;;;12.10;99.90;;;;;;4991223;28;20049;-38
2023/03/11 10:45:53;;;;;;;4.25;1.45;;;12.60;74.70;;;;;;5017954;28;20038;-38
2023/03/11 10:48:21;;;;;;;3.85;1.00;;;12.80;99.90;;;;;;5012092;28;20041;-38
2023/03/11 10:51:00;;;;;;;3.80;1.30;;;12.90;99.90;;;;;;4984280;28;20029;-38
2023/03/11 10:53:27;;;;;;;3.28;1.13;;;13.00;81.40;;;;;;5026524;28;20125;-38
2023/03/11 10:55:55;;;;;;;4.10;1.80;;;13.20;99.90;;;;;;5013475;28;20507;-38
2023/03/11 10:58:27;;;;;;;2.33;1.30;;;13.30;87.10;;;;;;5009616;28;20076;-38
2023/03/11 11:01:14;;;;;;;7.50;1.23;;;13.50;99.90;;;;;;5015455;28;20041;-38
2023/03/11 11:03:42;;;;;;;3.03;1.55;;;13.10;72.30;;;;;;5038068;28;20033;-38
2023/03/11 11:06:24;;;;;;;2.50;1.05;;;13.10;99.60;;;;;;5007921;28;20037;-38
2023/03/11 11:09:16;;;;;;;4.68;1.33;;;12.70;71.80;;;;;;5007237;28;20033;-38
2023/03/11 11:12:11;;;;;;;3.42;1.10;;;12.60;76.10;;;;;;5014016;28;20044;-38
2023/03/11 11:14:45;;;;;;;4.00;1.20;;;13.20;66.70;;;;;;5013209;28;20045;-38
2023/03/11 11:17:27;;;;;;;5.25;1.40;;;13.50;74.00;;;;;;5011655;28;20041;-38
2023/03/11 11:19:56;;;;;;;5.28;1.17;;;13.40;71.70;;;;;;5014254;28;20037;-38
2023/03/11 11:22:24;;;;;;;3.80;1.20;;;13.90;90.30;;;;;;5010342;28;20037;-38
2023/03/11 11:24:52;;;;;;;3.97;1.38;;;14.10;76.40;;;;;;5013518;28;20390;-38
2023/03/11 11:27:27;;;;;;;3.60;1.20;;;14.20;76.60;;;;;;5007655;28;20505;-36
2023/03/11 11:30:08;;;;;;;2.88;1.02;;;14.50;68.20;;;;;;5015147;28;20045;-36
2023/03/11 11:32:35;;;;;;;5.32;1.20;;;14.90;60.30;;;;;;5025371;28;20474;-36
2023/03/11 11:35:04;;;;;;;2.95;1.30;;;14.80;63.30;;;;;;5014765;28;20048;-36
2023/03/11 11:37:33;;;;;;;3.90;1.15;;;15.00;62.30;;;;;;5008309;28;20094;-36
2023/03/11 11:40:15;;;;;;;3.40;1.20;;;14.80;60.60;;;;;;5028254;28;20045;-36
2023/03/11 11:43:12;;;;;;;3.63;1.20;;;14.80;60.50;;;;;;5036647;28;20124;-36
2023/03/11 11:45:45;;;;;;;3.08;1.10;;;15.30;59.20;;;;;;5006477;28;20556;-36
2023/03/11 11:48:11;;;;;;;3.40;1.15;;;15.30;59.30;;;;;;5028503;28;20315;-36
2023/03/11 11:50:47;;;;;;;3.97;1.17;;;15.50;59.80;;;;;;5045268;28;20044;-36
2023/03/11 11:53:31;;;;;;;2.67;0.90;;;15.50;56.80;;;;;;5017714;28;20494;-37
2023/03/11 11:55:57;;;;;;;4.32;0.90;;;16.00;55.50;;;;;;5011237;28;20464;-36
2023/03/11 11:58:23;;;;;;;4.45;0.95;;;16.30;57.90;;;;;;5039262;28;20041;-36
2023/03/11 12:00:55;;;;;;;3.55;1.08;;;16.20;56.50;;;;;;5019031;28;20060;-36
2023/03/11 12:03:36;;;;;;;1.77;0.90;;;16.20;56.30;;;;;;5050996;28;20041;-36
2023/03/11 12:06:12;;;;;;;1.52;0.82;;;15.90;53.90;;;;;;5001140;28;20049;-36
2023/03/11 12:08:46;;;;;;;1.77;0.70;;;16.10;54.50;;;;;;5019841;28;20037;-36
2023/03/11 12:11:22;;;;;;;1.77;0.77;;;15.90;54.40;;;;;;5020664;28;20037;-36
2023/03/11 12:14:04;;;;;;;2.45;0.82;;;15.40;50.40;;;;;;5017443;28;20045;-36
2023/03/11 12:16:30;;;;;;;1.55;0.60;;;15.60;54.10;;;;;;5048860;28;20033;-36
2023/03/11 12:19:09;;;;;;;2.63;0.85;;;15.90;54.00;;;;;;5017945;28;20034;-36
2023/03/11 12:21:47;;;;;;;1.52;0.73;;;16.00;52.00;;;;;;5018616;28;20041;-36
2023/03/11 12:24:37;;;;;;;2.40;0.90;;;15.10;52.00;;;;;;5005371;28;20055;-36
2023/03/11 12:27:12;;;;;;;3.40;0.82;;;14.70;52.60;;;;;;5009938;28;20072;-36
2023/03/11 12:29:45;;;;;;;3.35;0.95;;;14.00;53.30;;;;;;5017740;28;20096;-36
2023/03/11 12:32:42;;;;;;;2.65;0.93;;;13.80;53.70;;;;;;5025365;28;20042;-36
2023/03/11 12:35:21;;;;;;;1.20;0.70;;;14.10;53.20;;;;;;5026045;28;20055;-36
2023/03/11 12:38:13;;;;;;;1.50;0.65;;;14.10;52.00;;;;;;5005442;28;20029;-36
2023/03/11 12:40:42;;;;;;;2.90;0.93;;;14.30;51.10;;;;;;5045689;28;20040;-36
2023/03/11 12:43:32;;;;;;;3.95;1.17;;;13.90;53.00;;;;;;5029438;28;20033;-36
2023/03/11 12:46:03;;;;;;;5.60;0.82;;;14.00;51.40;;;;;;5043559;28;20445;-36
2023/03/11 12:48:28;;;;;;;1.23;0.60;;;13.00;52.20;;;;;;5017811;28;20041;-36
2023/03/11 12:50:59;;;;;;;2.15;1.00;;;12.60;54.80;;;;;;5018339;28;20103;-36
2023/03/11 12:53:46;;;;;;;0.98;0.70;;;12.10;54.20;;;;;;5018045;28;20047;-36
2023/03/11 12:56:34;;;;;;;3.42;0.90;;;12.10;52.00;;;;;;5053951;28;20433;-36
2023/03/11 12:59:27;;;;;;;3.05;0.85;;;12.20;53.00;;;;;;5031022;28;20029;-36
2023/03/11 13:02:01;;;;;;;0.70;0.70;;;12.30;53.80;;;;;;5017099;28;20048;-35
2023/03/11 13:04:38;;;;;;;2.88;0.70;;;12.20;54.80;;;;;;5045999;28;20107;-36
2023/03/11 13:07:31;;;;;;;2.42;1.00;;;12.10;53.70;;;;;;5051940;28;20048;-36
2023/03/11 13:10:11;;;;;;;1.48;0.82;;;12.10;52.40;;;;;;5029787;28;20504;-35
2023/03/11 13:12:42;;;;;;;1.67;0.90;;;12.10;53.80;;;;;;5008954;28;20033;-36
2023/03/11 13:15:18;;;;;;;3.03;1.00;;;12.20;54.10;;;;;;5017963;28;20037;-36
2023/03/11 13:18:12;;;;;;;4.82;3.13;;;12.50;52.50;;;;;;5013377;28;20029;-36
2023/03/11 13:20:40;;;;;;;2.83;0.80;;;12.50;52.00;;;;;;5020908;28;20124;-36
2023/03/11 13:23:13;;;;;;;2.55;0.80;;;12.60;52.80;;;;;;5031742;28;20051;-36
2023/03/11 13:25:41;;;;;;;10.18;1.27;;;13.20;51.80;;;;;;5034871;28;20044;-36
2023/03/11 13:28:13;;;;;;;4.00;0.90;;;14.30;51.70;;;;;;5017785;28;20076;-36
2023/03/11 13:30:52;;;;;;;2.55;0.80;;;14.70;50.20;;;;;;5017011;28;20407;-36
2023/03/11 13:33:21;;;;;;;1.95;0.68;;;15.10;49.30;;;;;;5017098;28;20033;-36
2023/03/11 13:36:09;;;;;;;2.35;0.60;;;15.70;48.90;;;;;;5000735;28;20398;-36
2023/03/11 13:39:01;;;;;;;1.48;0.70;;;15.70;45.70;;;;;;5037103;28;20041;-36
2023/03/11 13:41:33;;;;;;;1.52;0.82;;;15.40;45.70;;;;;;5000944;28;20457;-36